Rainier — WTEF — position and weather

sailwx.info

Track history (hours):
 
Tides and Currents Weather Stations Pressure Air Temp Water Temp Dewpoint Dewpoint Depression Visibility Wind Speed Wind Dir Waves Ship Positions

Oceanographic research ship Rainier (USA)

Detailed information on ship capabilities available from University of Delaware's Ocean Information Center.

Last reported at 2017-Sep-21 19:26 UTC. Time now 2017-Sep-25 11:52 UTC.
Position N 47°41' W 122°16'.

Type: Other ship. MMSI: 303935000.

Date/timePositionNaut miles runAvg speedWind from/ knotsBaromVisibWave heightAir tempDewpointWater temp
2017-Sep-21 19:26N 47°41' W 122°16'1 2.4
2017-Sep-21 19:00N 47°41' W 122°14'3 6.4
2017-Sep-21 18:30N 47°39' W 122°18'1 2.1
2017-Sep-21 18:00N 47°39' W 122°20'1 2.3
2017-Sep-21 17:29N 47°39' W 122°21'2 3.4
2017-Sep-21 17:00N 47°40' W 122°23'1 1.0
2017-Sep-21 16:26N 47°40' W 122°24'1 3.1
2017-Sep-21 16:01N 47°41' W 122°25'0 0.6
2017-Sep-21 15:30N 47°41' W 122°25'0 0.5
2017-Sep-21 15:00N 47°41' W 122°25'2 4.6
2017-Sep-21 14:30N 47°43' W 122°28'4 8.0
2017-Sep-21 14:01N 47°47' W 122°27'4 8.2
2017-Sep-21 13:30N 47°51' W 122°28'4 8.4
2017-Sep-21 13:00N 47°55' W 122°30'4 8.9
2017-Sep-21 12:30N 47°58' W 122°35'4 8.9
2017-Sep-21 12:01N 48°01' W 122°39'4 8.7
2017-Sep-21 11:30N 48°06' W 122°40'610.1
2017-Sep-21 10:57N 48°10' W 122°46'510.0
2017-Sep-21 10:30N 48°11' W 122°52'612.8
2017-Sep-21 10:00N 48°12' W 123°02'713.1
2017-Sep-21 09:30N 48°12' W 123°12'612.6
2017-Sep-21 09:00N 48°13' W 123°21'612.8
2017-Sep-21 08:30N 48°13' W 123°30'611.8
2017-Sep-21 08:00N 48°13' W 123°39'711.1
2017-Sep-21 07:22N 48°13' W 123°50'412.0
2017-Sep-21 07:00N 48°14' W 123°56'612.7
2017-Sep-21 06:30N 48°17' W 124°05'612.1
2017-Sep-21 06:00N 48°19' W 124°13'511.0
2017-Sep-21 05:30N 48°21' W 124°21'510.6
2017-Sep-21 05:00N 48°24' W 124°28'510.4
2017-Sep-21 04:30N 48°26' W 124°35'510.5
2017-Sep-21 04:00N 48°28' W 124°42'510.4
2017-Sep-21 03:30N 48°29' W 124°50'510.7
2017-Sep-21 03:00N 48°28' W 124°58'611.3
2017-Sep-21 02:30N 48°24' W 125°04'612.2
2017-Sep-21 02:00N 48°18' W 125°08'612.0
2017-Sep-21 01:29N 48°14' W 125°13'7 5.7
2017-Sep-21 00:13N 48°09' W 125°22'1 5.9
2017-Sep-21 00:00N 48°10' W 125°21'4 8.0
2017-Sep-20 23:28N 48°09' W 125°27'4 8.0
2017-Sep-20 22:58N 48°09' W 125°21'2 2.8
2017-Sep-20 22:11N 48°08' W 125°24'2 9.1
2017-Sep-20 21:56N 48°09' W 125°20'3 7.3
2017-Sep-20 21:29N 48°08' W 125°25'4 4.6
2017-Sep-20 20:43N 48°09' W 125°20'2 7.7
2017-Sep-20 20:24N 48°08' W 125°23'2 4.1
2017-Sep-20 19:57N 48°08' W 125°26'4 9.1
2017-Sep-20 19:28N 48°08' W 125°19'5 9.4
2017-Sep-20 18:55N 48°07' W 125°27'5 7.9
2017-Sep-20 18:20N 48°08' W 125°20'1 0.9
2017-Sep-20 17:10N 48°07' W 125°21'1 8.9
2017-Sep-20 17:00N 48°08' W 125°19'5 9.2
2017-Sep-20 16:24N 48°07' W 125°27'3 6.9
2017-Sep-20 16:00N 48°06' W 125°23'0 0.6
2017-Sep-20 15:26N 48°06' W 125°23'2 0.6
2017-Sep-20 11:53N 48°05' W 125°25'4 8.7
2017-Sep-20 11:26N 48°05' W 125°19'11 4.5
2017-Sep-20 09:04N 48°14' W 125°28'311.7
2017-Sep-20 08:49N 48°16' W 125°25'411.7
2017-Sep-20 08:27N 48°18' W 125°19'511.8
2017-Sep-20 08:00N 48°21' W 125°13'612.1
2017-Sep-20 07:30N 48°25' W 125°07'611.7
2017-Sep-20 07:00N 48°30' W 125°02'611.2
2017-Sep-20 06:30N 48°31' W 124°54'612.5
2017-Sep-20 06:00N 48°31' W 124°44'713.2
2017-Sep-20 05:30N 48°28' W 124°35'713.3
2017-Sep-20 05:00N 48°26' W 124°26'713.7
2017-Sep-20 04:31N 48°23' W 124°16'713.9
2017-Sep-20 04:00N 48°20' W 124°07'714.6
2017-Sep-20 03:31N 48°18' W 123°56'714.1
2017-Sep-20 03:00N 48°17' W 123°46'713.8
2017-Sep-20 02:30N 48°16' W 123°36'612.6
2017-Sep-20 02:00N 48°13' W 123°27'510.8
2017-Sep-20 01:30N 48°08' W 123°24'2 3.7
2017-Sep-20 01:00N 48°08' W 123°27'0 0.0
2017-Sep-20 00:27N 48°08' W 123°27'0 0.0
2017-Sep-20 00:00N 48°08' W 123°27'0 0.0
2017-Sep-19 23:27N 48°08' W 123°27'0 0.0
2017-Sep-19 23:00N 48°08' W 123°27'0 0.0
2017-Sep-19 22:12N 48°08' W 123°27'0 0.0
2017-Sep-19 21:57N 48°08' W 123°27'0 0.0
2017-Sep-19 21:27N 48°08' W 123°27'0 0.0
2017-Sep-19 20:54N 48°08' W 123°27'0 0.0
2017-Sep-19 20:24N 48°08' W 123°27'0 0.1
2017-Sep-19 19:57N 48°08' W 123°27'0 0.1
2017-Sep-19 19:21N 48°08' W 123°27'0 0.0
2017-Sep-19 18:45N 48°08' W 123°27'0 0.0
2017-Sep-19 18:30N 48°08' W 123°27'0 0.0
2017-Sep-19 18:00N 48°08' W 123°27'0 0.0
2017-Sep-19 17:24N 48°08' W 123°27'0 0.0
2017-Sep-19 17:00N 48°08' W 123°27'0 0.0
2017-Sep-19 16:24N 48°08' W 123°27'0 0.0
2017-Sep-19 16:00N 48°08' W 123°27'0 0.0
2017-Sep-19 15:27N 48°08' W 123°27'3 5.5
2017-Sep-19 14:58N 48°06' W 123°24'323.0 240 / 31005.6 10.3 9.5
2017-Sep-19 14:51N 48°08' W 123°27'0 0.0
2017-Sep-19 14:27N 48°08' W 123°27'0 0.0
2017-Sep-19 13:59N 48°08' W 123°27'3163.7
2017-Sep-19 13:59N 48°06' W 123°24'2 4.6 240 / 51005.1 10.1 9.3
2017-Sep-19 13:30N 48°08' W 123°24'3 5.4
2017-Sep-19 13:00N 48°11' W 123°26'5146.8
2017-Sep-19 12:59N 48°06' W 123°24'817.5 300 / 51004.5 10.310.0
2017-Sep-19 12:30N 48°13' W 123°31'4 7.0
2017-Sep-19 12:00N 48°13' W 123°36'4262.5
2017-Sep-19 12:00N 48°12' W 123°30'4240.0 050 / 51003.8 5.4 10.8 -8.3
2017-Sep-19 11:59N 48°12' W 123°36'3 7.2 050 / 51003.9 10.8 9.8
2017-Sep-19 11:30N 48°13' W 123°41'3 7.2
2017-Sep-19 11:00N 48°13' W 123°46'394.0
2017-Sep-19 10:59N 48°12' W 123°42'613.0 120 / 31003.5 10.0 9.6
2017-Sep-19 10:30N 48°13' W 123°51'3 6.9
2017-Sep-19 10:00N 48°14' W 123°56'266.3
2017-Sep-19 09:59N 48°12' W 123°54'612.1 100 / 51003.3 10.2 9.7
2017-Sep-19 09:30N 48°15' W 124°01'3 6.0
2017-Sep-19 09:00N 48°12' W 124°00'6963.7 140 / 21003.1 10.4 -8.3
2017-Sep-19 08:59N 48°17' W 124°06'5438.9
2017-Sep-19 08:59N 48°12' W 124°06'715.2 140 / 31003.1 10.4 9.6
2017-Sep-19 08:30N 48°18' W 124°11'4 7.6
2017-Sep-19 08:00N 48°20' W 124°17'4108.0
2017-Sep-19 07:59N 48°18' W 124°12'715.5 120 / 41003.0 10.5 9.6
2017-Sep-19 07:30N 48°22' W 124°22'4 7.4
2017-Sep-19 07:00N 48°23' W 124°27'5164.5
2017-Sep-19 06:59N 48°18' W 124°24'918.4 090 / 71003.0 10.410.0
2017-Sep-19 06:30N 48°25' W 124°32'4 8.0
2017-Sep-19 06:00N 48°27' W 124°37'387.6
2017-Sep-19 05:59N 48°24' W 124°36'817.0 060 / 121003.1 10.7 9.5
2017-Sep-19 05:30N 48°29' W 124°46'612.9
2017-Sep-19 05:00N 48°28' W 124°56'5450.5
2017-Sep-19 05:00N 48°24' W 124°54'612.0 090 / 161002.8 10.710.0
2017-Sep-19 04:30N 48°25' W 125°03'713.3
2017-Sep-19 04:00N 48°19' W 125°07'1112.7
2017-Sep-19 04:00N 48°18' W 125°06'712.8 140 / 191003.2 11.210.3
2017-Sep-19 03:27N 48°12' W 125°11'612.5
2017-Sep-19 03:00N 48°07' W 125°08'1131.2
2017-Sep-19 03:00N 48°06' W 125°06'611.2 130 / 151003.1 11.510.3
2017-Sep-19 02:27N 48°01' W 125°02'714.6
2017-Sep-19 02:00N 47°54' W 125°00'1818.4 150 / 111003.5 11.610.3
2017-Sep-19 01:00N 47°36' W 124°54'1312.7 140 / 141003.5 13.712.0
2017-Sep-19 00:00N 47°24' W 124°48'1211.4 200 / 131002.8 14.9 -13.9
2017-Sep-18 22:57N 47°12' W 124°48'1212.0 180 / 191005.1 13.811.0
2017-Sep-18 21:57N 47°00' W 124°48'1313.3 170 / 201005.7 13.510.1
2017-Sep-18 21:00N 46°48' W 124°42'7218.2 170 / 131006.7 5.4 13.5 -12.2
2017-Sep-18 20:58N 46°42' W 124°48'7 7.3 170 / 141006.8 13.210.3
2017-Sep-18 19:58N 46°36' W 124°42'8 8.2 200 / 231006.6 14.512.0
2017-Sep-18 18:58N 46°36' W 124°30'1010.6 180 / 191007.3 14.810.4
2017-Sep-18 18:00N 46°30' W 124°18'4123.9 170 / 131007.910.8 13.7 -12.2
2017-Sep-18 17:58N 46°30' W 124°24'4 4.1 170 / 151007.9 13.510.0
2017-Sep-18 16:58N 46°30' W 124°30'0 0.0 190 / 161007.4 13.7 9.5
2017-Sep-18 15:58N 46°30' W 124°30'0 0.0 190 / 151007.6 13.611.7
2017-Sep-18 14:58N 46°30' W 124°30'0 0.0 250 / 51007.9 13.910.1
2017-Sep-18 13:58N 46°30' W 124°30'0 0.0 240 / 111007.9 13.411.1
2017-Sep-18 12:58N 46°30' W 124°30'7 7.5 270 / 51008.0 12.810.4
2017-Sep-18 12:00N 46°36' W 124°36'4123.7 290 / 91007.9 13.2 -12.2
2017-Sep-18 11:58N 46°36' W 124°42'7 7.4 290 / 71007.9 13.2 8.8
2017-Sep-18 10:59N 46°42' W 124°48'1010.2 260 / 311007.4 13.111.2
2017-Sep-18 09:59N 46°36' W 124°36'1010.4 260 / 161008.1 14.810.6
2017-Sep-18 09:00N 46°30' W 124°24'4247.8 230 / 131008.5 14.3 -11.1
2017-Sep-18 08:59N 46°30' W 124°30'7 7.3 230 / 141008.5 14.510.4
2017-Sep-18 07:59N 46°24' W 124°24'0 0.0 220 / 81009.1 13.511.6
2017-Sep-18 06:59N 46°24' W 124°24'4 4.1 290 / 51009.2 13.511.0
2017-Sep-18 05:59N 46°24' W 124°30'0 0.0 260 / 61009.3 14.812.8
2017-Sep-18 04:59N 46°24' W 124°30'0 0.0 210 / 61009.3 14.813.8
2017-Sep-18 03:59N 46°24' W 124°30'0 0.0 190 / 101009.4 14.514.2
2017-Sep-18 03:00N 46°24' W 124°30'0 0.0 170 / 131008.9 14.312.8
2017-Sep-18 02:00N 46°24' W 124°30'0 0.0 140 / 71009.1 13.812.2
2017-Sep-18 01:00N 46°24' W 124°30'4 4.1 180 / 51009.4 14.212.4
2017-Sep-18 00:00N 46°24' W 124°24'56 2.6 010 / 51009.210.8 14.1 -12.2
2017-Sep-17 02:00N 47°18' W 124°48'4 3.6 360 / 51013.8 16.2 -13.9
2017-Sep-17 00:53N 47°18' W 124°54'7 3.6 350 / 61013.8 16.312.7
2017-Sep-16 22:53N 47°24' W 125°00'0 0.0 320 / 71014.4 17.813.4
2017-Sep-16 21:53N 47°24' W 125°00'4 4.1 020 / 41014.9 15.114.1
2017-Sep-16 20:53N 47°24' W 124°54'7 7.4 330 / 51015.0 13.512.9
2017-Sep-16 19:54N 47°30' W 125°00'7 7.2 020 / 81015.5 14.813.6
2017-Sep-16 18:54N 47°36' W 125°06'6 6.0 030 / 91015.7 14.513.8
2017-Sep-16 17:54N 47°42' W 125°06'5 7.5 050 / 61015.9 13.413.5
2017-Sep-16 17:17N 47°45' W 125°11'512.0
2017-Sep-16 16:54N 47°42' W 125°06'0 0.0 300 / 31016.2 13.813.9
2017-Sep-16 15:54N 47°42' W 125°06'320.9 360 / 11015.9 13.413.5
2017-Sep-16 15:46N 47°44' W 125°08'0 0.8
2017-Sep-16 15:30N 47°44' W 125°09'2 3.9
2017-Sep-16 14:54N 47°42' W 125°06'7 8.9 100 / 41016.0 13.013.1
2017-Sep-16 14:05N 47°48' W 125°11'737.4
2017-Sep-16 13:54N 47°42' W 125°06'597.4 140 / 31015.9 12.612.7
2017-Sep-16 13:50N 47°47' W 125°10'5 5.4
2017-Sep-16 12:54N 47°42' W 125°06'4 6.1 100 / 41015.6 13.313.4
2017-Sep-16 12:12N 47°46' W 125°08'0 1.0
2017-Sep-16 11:58N 47°46' W 125°08'460.4
2017-Sep-16 11:54N 47°42' W 125°06'1010.2 100 / 21015.6 12.913.0
2017-Sep-16 10:56N 47°51' W 125°12'370.9
2017-Sep-16 10:54N 47°48' W 125°12'3 3.7 120 / 31015.9 13.013.2
2017-Sep-16 10:12N 47°48' W 125°08'620.0
2017-Sep-16 09:54N 47°42' W 125°06'354.2 300 / 31016.2 12.712.9
2017-Sep-16 09:50N 47°45' W 125°07'3 7.4
2017-Sep-16 09:27N 47°43' W 125°06'711.9
2017-Sep-16 08:54N 47°36' W 125°06'429.8 030 / 31016.1 13.613.6
2017-Sep-16 08:45N 47°40' W 125°06'0 0.8
2017-Sep-16 08:22N 47°40' W 125°06'4 9.7
2017-Sep-16 07:55N 47°36' W 125°06'5122.8 010 / 61016.1 14.914.8
2017-Sep-16 07:52N 47°41' W 125°06'1 2.2
2017-Sep-16 07:30N 47°40' W 125°06'4 9.1
2017-Sep-16 07:00N 47°36' W 125°03'664.5
2017-Sep-16 06:55N 47°30' W 125°00'7 7.9 320 / 91016.0 15.514.9
2017-Sep-16 06:00N 47°36' W 124°54'448.5 340 / 51016.3 2.2 14.9
2017-Sep-16 05:55N 47°36' W 125°00'616.0 350 / 61016.3 14.915.0
2017-Sep-16 05:34N 47°40' W 125°05'110.9
2017-Sep-16 05:30N 47°41' W 125°06'1 1.1
2017-Sep-16 05:00N 47°41' W 125°05'658.5
2017-Sep-16 04:55N 47°36' W 125°00'2 5.5 310 / 91016.2 14.714.6
2017-Sep-16 04:30N 47°36' W 125°03'1 1.3
2017-Sep-16 04:01N 47°36' W 125°03'218.0
2017-Sep-16 03:55N 47°36' W 125°00'511.8 350 / 41016.4 14.114.2
2017-Sep-16 03:29N 47°40' W 125°04'4 7.2
2017-Sep-16 03:00N 47°42' W 125°00'570.1 090 / 21016.5 13.0 -13.3
2017-Sep-16 02:55N 47°45' W 125°06'3583.2
2017-Sep-16 02:55N 47°42' W 125°06'1114.4 070 / 31016.5 12.813.0
2017-Sep-16 02:09N 47°52' W 125°12'1 5.9
2017-Sep-16 02:01N 47°52' W 125°11'655.9
2017-Sep-16 01:55N 47°48' W 125°06'1 2.6 280 / 41016.7 12.812.9
2017-Sep-16 01:30N 47°49' W 125°06'1 2.2
2017-Sep-16 01:00N 47°48' W 125°05'439.0
2017-Sep-16 00:55N 47°48' W 125°00'4 5.9 300 / 61017.2 15.114.4
2017-Sep-16 00:19N 47°48' W 125°05'0 1.1
2017-Sep-16 00:01N 47°48' W 125°06'6 6.3
2017-Sep-15 23:04N 47°52' W 125°12'1 9.4
2017-Sep-15 22:59N 47°53' W 125°12'5103.8
2017-Sep-15 22:56N 47°48' W 125°12'510.9 230 / 61017.7 14.914.1
2017-Sep-15 22:30N 47°52' W 125°11'5 9.4
2017-Sep-15 21:56N 47°48' W 125°06'036.7 250 / 51017.8 15.114.9
2017-Sep-15 21:55N 47°48' W 125°06'4 8.6
2017-Sep-15 21:28N 47°45' W 125°05'4 8.2
2017-Sep-15 20:56N 47°42' W 125°00'0 0.0 210 / 31018.3 16.015.4
2017-Sep-15 19:56N 47°42' W 125°00'0 0.0 160 / 51018.4 15.314.0
2017-Sep-15 18:56N 47°42' W 125°00'1212.0 160 / 41018.3 14.813.8
2017-Sep-15 17:56N 47°30' W 125°00'6 6.0 140 / 61018.3 13.713.8
2017-Sep-15 16:56N 47°36' W 125°00'1116.0 100 / 41018.1 12.112.2
2017-Sep-15 16:14N 47°46' W 125°06'0 0.8
2017-Sep-15 15:56N 47°46' W 125°06'6394.3
2017-Sep-15 15:56N 47°42' W 125°00'816.7 140 / 11018.0 12.012.0
2017-Sep-15 15:27N 47°49' W 125°06'2 3.4
2017-Sep-15 15:00N 47°48' W 125°05'93017.0
2017-Sep-15 15:00N 47°42' W 124°54'460.6 250 / 21017.7 11.1 -11.6
2017-Sep-15 14:56N 47°42' W 125°00'3 6.9 240 / 31017.7 11.011.1
2017-Sep-15 14:30N 47°43' W 125°04'813.7
2017-Sep-15 13:57N 47°36' W 125°00'1 3.1 310 / 11017.2 11.811.8
2017-Sep-15 13:38N 47°36' W 125°01'1 8.2
2017-Sep-15 13:29N 47°35' W 125°01'3 4.9
2017-Sep-15 12:58N 47°33' W 124°59'4170.0
2017-Sep-15 12:57N 47°30' W 124°54'3 6.8 350 / 21017.2 13.013.1
2017-Sep-15 12:30N 47°32' W 124°57'1019.9
2017-Sep-15 12:00N 47°30' W 124°42'62928.4 230 / 21017.0 11.6 -10.5
2017-Sep-15 11:59N 47°33' W 124°49'363.9
2017-Sep-15 11:57N 47°30' W 124°48'7 7.2 220 / 21016.9 11.611.8
2017-Sep-15 10:57N 47°36' W 124°54'3 7.5 020 / 41017.0 13.613.7
2017-Sep-15 10:35N 47°38' W 124°56'110.5
2017-Sep-15 10:30N 47°38' W 124°55'510.5
2017-Sep-15 10:00N 47°34' W 124°49'470.4
2017-Sep-15 09:57N 47°30' W 124°48'610.5 310 / 81016.6 13.914.0
2017-Sep-15 09:20N 47°36' W 124°53'0 1.1
2017-Sep-15 09:00N 47°35' W 124°52'6100.1
2017-Sep-15 08:57N 47°30' W 124°48'1020.3 320 / 81016.8 14.514.4
2017-Sep-15 08:27N 47°38' W 124°56'4 9.8
2017-Sep-15 08:01N 47°42' W 124°58'342.1
2017-Sep-15 07:57N 47°42' W 124°54'613.8 350 / 61016.4 13.813.5
2017-Sep-15 07:29N 47°47' W 124°59'5 9.5
2017-Sep-15 07:00N 47°43' W 124°58'341.5
2017-Sep-15 06:57N 47°42' W 124°54'715.4 330 / 41015.8 13.613.0
2017-Sep-15 06:30N 47°48' W 124°59'4 8.3
2017-Sep-15 06:01N 47°44' W 124°59'7436.6
2017-Sep-15 06:00N 47°42' W 124°48'480.8 310 / 91015.5 13.8 -11.1
2017-Sep-15 05:57N 47°42' W 124°54'4 8.9 310 / 91015.5 13.712.0
2017-Sep-15 05:31N 47°39' W 124°57'510.1
2017-Sep-15 04:59N 47°35' W 124°51'5120.4
2017-Sep-15 04:57N 47°30' W 124°48'0 0.0 320 / 121015.1 14.112.0
2017-Sep-15 03:58N 47°30' W 124°48'652.4 340 / 121015.2 14.112.3
2017-Sep-15 03:51N 47°35' W 124°52'610.0
2017-Sep-15 03:18N 47°39' W 124°58'3 9.7
2017-Sep-15 03:00N 47°42' W 124°59'7489.2
2017-Sep-15 03:00N 47°42' W 124°48'4121.1 360 / 91015.110.8 13.8
2017-Sep-15 02:58N 47°42' W 124°54'612.9 360 / 111015.1 13.712.3
2017-Sep-15 02:30N 47°47' W 124°60'1 1.0
2017-Sep-15 02:00N 47°46' W 124°60'4110.7
2017-Sep-15 01:58N 47°42' W 125°00'1 2.3 340 / 121014.8 14.511.8
2017-Sep-15 01:30N 47°41' W 124°59'3 6.6
2017-Sep-15 01:01N 47°38' W 124°57'360.8
2017-Sep-15 00:58N 47°36' W 124°54'7 3.6 310 / 181014.4 15.611.1
2017-Sep-14 22:58N 47°30' W 124°48'7 7.2 300 / 171013.9 16.111.2
2017-Sep-14 21:58N 47°36' W 124°54'1312.7 320 / 121014.7 15.910.9
2017-Sep-14 20:58N 47°48' W 125°00'6 6.0 330 / 151014.8 14.910.4
2017-Sep-14 19:58N 47°42' W 125°00'0 0.0 320 / 161014.4 14.510.8
2017-Sep-14 18:58N 47°42' W 125°00'1717.7 330 / 181014.2 14.610.8
2017-Sep-14 18:00N 47°30' W 124°42'4121.6 320 / 131013.8 15.1 -11.1
2017-Sep-14 17:58N 47°30' W 124°48'7 7.4 330 / 121013.8 15.110.7
2017-Sep-14 16:59N 47°24' W 124°42'1414.5 030 / 161013.8 14.8 9.2
2017-Sep-14 15:59N 47°36' W 124°54'4 4.1 350 / 161013.8 15.511.0
2017-Sep-14 15:00N 47°36' W 124°48'8485.5 350 / 131014.0 14.3 -11.1
2017-Sep-14 14:59N 47°36' W 125°00'1115.5 360 / 121014.1 14.111.8
2017-Sep-14 14:15N 47°47' W 125°00'1 3.0
2017-Sep-14 13:59N 47°48' W 125°00'3 9.6 340 / 131013.9 13.912.4
2017-Sep-14 13:40N 47°50' W 125°03'2 9.8
2017-Sep-14 13:29N 47°48' W 125°02'712.9
2017-Sep-14 12:59N 47°42' W 125°00'0 3.9 340 / 141013.1 13.112.8
2017-Sep-14 12:51N 47°42' W 125°01'1314.8
2017-Sep-14 11:59N 47°30' W 124°54'1010.1 330 / 71012.7 13.412.9
2017-Sep-14 10:59N 47°24' W 124°42'7 7.2 330 / 171012.2 13.012.3
2017-Sep-14 09:59N 47°30' W 124°48'6 6.1 340 / 111012.6 13.312.5
2017-Sep-14 09:00N 47°36' W 124°48'4242.7 340 / 51013.3 13.6 -10.5
2017-Sep-14 08:59N 47°36' W 124°54'7 7.2 340 / 51013.4 13.612.7
2017-Sep-14 07:59N 47°42' W 125°00'1316.5 360 / 21013.4 13.012.9
2017-Sep-14 07:13N 47°54' W 125°04'729.1
2017-Sep-14 06:59N 47°48' W 125°00'51859.8 290 / 71013.2 12.712.7
2017-Sep-14 06:58N 47°53' W 125°01'3 3.5
2017-Sep-14 06:12N 47°55' W 125°04'734.5
2017-Sep-14 06:00N 47°48' W 125°00'5293.2 300 / 51013.4 12.712.7
2017-Sep-14 05:59N 47°53' W 125°02'3 4.0
2017-Sep-14 05:08N 47°55' W 125°05'110.8
2017-Sep-14 05:00N 47°54' W 125°04'3313.4
2017-Sep-14 05:00N 47°54' W 125°00'4 8.7 330 / 81013.4 12.812.8
2017-Sep-14 04:29N 47°50' W 124°58'2 4.2
2017-Sep-14 04:00N 47°48' W 125°00'830.0 360 / 81013.5 12.912.8
2017-Sep-14 03:43N 47°55' W 125°06'210.3
2017-Sep-14 03:29N 47°53' W 125°04'5 9.5
2017-Sep-14 03:00N 47°50' W 124°59'4333.7
2017-Sep-14 03:00N 47°48' W 124°54'1010.0 330 / 91013.3 12.512.3
2017-Sep-14 02:00N 47°54' W 125°06'116.9 340 / 101013.4 13.012.5
2017-Sep-14 01:57N 47°55' W 125°07'4 9.2
2017-Sep-14 01:27N 47°51' W 125°02'11779.9
2017-Sep-14 00:00N 49°48' W 124°48'115134.0 020 / 91017.0 17.1 -8.9
2017-Sep-13 23:08N 47°53' W 125°06'12 1.6
2017-Sep-13 15:46N 48°05' W 125°10'2 6.8
2017-Sep-13 15:24N 48°06' W 125°07'8 6.5
2017-Sep-13 14:07N 48°14' W 125°10'1 6.3
2017-Sep-13 14:00N 48°15' W 125°09'2 3.5
2017-Sep-13 13:30N 48°16' W 125°08'7 7.7
2017-Sep-13 12:33N 48°24' W 125°08'112.0
2017-Sep-13 12:28N 48°24' W 125°07'511.6
2017-Sep-13 12:00N 48°29' W 125°03'5 9.4
2017-Sep-13 11:30N 48°31' W 124°57'510.5
2017-Sep-13 11:00N 48°31' W 124°49'611.6
2017-Sep-13 10:30N 48°30' W 124°41'612.6
2017-Sep-13 10:01N 48°27' W 124°32'713.2
2017-Sep-13 09:30N 48°25' W 124°23'713.8
2017-Sep-13 09:01N 48°22' W 124°13'714.2
2017-Sep-13 08:31N 48°19' W 124°03'714.1
2017-Sep-13 08:00N 48°17' W 123°53'713.9
2017-Sep-13 07:30N 48°16' W 123°43'714.1
2017-Sep-13 07:00N 48°15' W 123°32'713.1
2017-Sep-13 06:30N 48°14' W 123°23'713.3
2017-Sep-13 06:00N 48°13' W 123°13'712.8
2017-Sep-13 05:29N 48°13' W 123°03'712.7
2017-Sep-13 04:59N 48°12' W 122°53'511.0
2017-Sep-13 04:30N 48°11' W 122°45'610.7
2017-Sep-13 03:56N 48°06' W 122°39'511.6
2017-Sep-13 03:29N 48°01' W 122°37'511.0
2017-Sep-13 03:00N 47°57' W 122°32'611.4
2017-Sep-13 02:30N 47°53' W 122°26'510.6
2017-Sep-13 02:00N 47°57' W 122°20'3 5.8
2017-Sep-13 01:30N 47°59' W 122°17'2 2.4
2017-Sep-13 00:52N 47°59' W 122°15'0 0.0
2017-Sep-13 00:25N 47°59' W 122°15'0 0.1
2017-Sep-12 23:58N 47°59' W 122°15'0 0.1
2017-Sep-12 23:28N 47°59' W 122°15'0 0.0
2017-Sep-12 22:07N 47°59' W 122°15'0 0.0
2017-Sep-12 21:40N 47°59' W 122°15'0 0.0
2017-Sep-12 21:07N 47°59' W 122°15'0 0.0
2017-Sep-12 20:40N 47°59' W 122°15'0 0.0
2017-Sep-12 20:28N 47°59' W 122°15'0 0.0
2017-Sep-12 19:25N 47°59' W 122°15'0 0.0
2017-Sep-12 18:55N 47°59' W 122°15'0 0.0
2017-Sep-12 18:25N 47°59' W 122°15'0 0.0
2017-Sep-12 17:07N 47°59' W 122°15'0 0.0
2017-Sep-12 16:52N 47°59' W 122°15'0 0.0
2017-Sep-12 16:22N 47°59' W 122°15'0 0.0
2017-Sep-12 15:37N 47°59' W 122°15'0 0.0
2017-Sep-12 15:30N 47°59' W 122°15'2 4.1
2017-Sep-12 15:00N 47°58' W 122°17'5 9.2
2017-Sep-12 14:30N 47°55' W 122°21'3 6.4
2017-Sep-12 14:00N 47°52' W 122°25'4 7.5
2017-Sep-12 13:30N 47°55' W 122°29'510.5
2017-Sep-12 13:00N 47°58' W 122°36'610.3
2017-Sep-12 12:26N 48°03' W 122°39'5 9.8
2017-Sep-12 11:58N 48°08' W 122°42'4 9.6
2017-Sep-12 11:30N 48°10' W 122°48'4 8.6
2017-Sep-12 11:00N 48°14' W 122°49'713.4
2017-Sep-12 10:31N 48°21' W 122°46'714.8
2017-Sep-12 10:00N 48°28' W 122°45'815.9
2017-Sep-12 09:30N 48°36' W 122°45'713.5
2017-Sep-12 09:01N 48°43' W 122°45'712.7
2017-Sep-12 08:30N 48°47' W 122°53'713.4
2017-Sep-12 08:00N 48°50' W 123°02'713.2
2017-Sep-12 07:30N 48°54' W 123°09'612.9
2017-Sep-12 07:00N 48°59' W 123°17'713.1
2017-Sep-12 06:30N 49°03' W 123°24'612.6
2017-Sep-12 06:00N 49°08' W 123°31'510.3
2017-Sep-12 05:29N 49°11' W 123°37'612.6
2017-Sep-12 05:00N 49°14' W 123°45'712.6
2017-Sep-12 04:27N 49°17' W 123°55'612.1
2017-Sep-12 03:59N 49°20' W 124°02'712.2
2017-Sep-12 03:24N 49°23' W 124°12'511.6
2017-Sep-12 02:59N 49°25' W 124°19'611.8
2017-Sep-12 02:28N 49°28' W 124°27'712.2
2017-Sep-12 01:54N 49°33' W 124°34'512.2
2017-Sep-12 01:28N 49°37' W 124°39'612.1
2017-Sep-12 01:00N 49°42' W 124°45'712.5
2017-Sep-12 00:28N 49°46' W 124°52'612.5
2017-Sep-12 00:00N 49°51' W 124°58'612.2
2017-Sep-11 23:30N 49°55' W 125°05'612.3
2017-Sep-11 23:00N 49°59' W 125°12'611.2
2017-Sep-11 22:30N 50°04' W 125°15'510.2
2017-Sep-11 22:00N 50°08' W 125°21'4 7.3
2017-Sep-11 21:30N 50°11' W 125°22'4 8.9
2017-Sep-11 21:00N 50°16' W 125°24'5 9.2
2017-Sep-11 20:30N 50°20' W 125°26'7 7.4
2017-Sep-11 19:34N 50°22' W 125°36'1 8.9
2017-Sep-11 19:29N 50°22' W 125°37'  
Track history (hours):
 
Tides and Currents Weather Stations Pressure Air Temp Water Temp Dewpoint Dewpoint Depression Visibility Wind Speed Wind Dir Waves Ship Positions

Oceanographic research ship Rainier (USA)

Detailed information on ship capabilities available from University of Delaware's Ocean Information Center.

Last reported at 2017-Sep-21 19:26 UTC. Time now 2017-Sep-25 11:52 UTC.
Position N 47°41' W 122°16'.

Type: Other ship. MMSI: 303935000.

Date/timePositionNaut miles runAvg speedWind from/ knotsBaromVisibWave heightAir tempDewpointWater temp
2017-Sep-21 19:26N 47°41' W 122°16'1 2.4
2017-Sep-21 19:00N 47°41' W 122°14'3 6.4
2017-Sep-21 18:30N 47°39' W 122°18'1 2.1
2017-Sep-21 18:00N 47°39' W 122°20'1 2.3
2017-Sep-21 17:29N 47°39' W 122°21'2 3.4
2017-Sep-21 17:00N 47°40' W 122°23'1 1.0
2017-Sep-21 16:26N 47°40' W 122°24'1 3.1
2017-Sep-21 16:01N 47°41' W 122°25'0 0.6
2017-Sep-21 15:30N 47°41' W 122°25'0 0.5
2017-Sep-21 15:00N 47°41' W 122°25'2 4.6
2017-Sep-21 14:30N 47°43' W 122°28'4 8.0
2017-Sep-21 14:01N 47°47' W 122°27'4 8.2
2017-Sep-21 13:30N 47°51' W 122°28'4 8.4
2017-Sep-21 13:00N 47°55' W 122°30'4 8.9
2017-Sep-21 12:30N 47°58' W 122°35'4 8.9
2017-Sep-21 12:01N 48°01' W 122°39'4 8.7
2017-Sep-21 11:30N 48°06' W 122°40'610.1
2017-Sep-21 10:57N 48°10' W 122°46'510.0
2017-Sep-21 10:30N 48°11' W 122°52'612.8
2017-Sep-21 10:00N 48°12' W 123°02'713.1
2017-Sep-21 09:30N 48°12' W 123°12'612.6
2017-Sep-21 09:00N 48°13' W 123°21'612.8
2017-Sep-21 08:30N 48°13' W 123°30'611.8
2017-Sep-21 08:00N 48°13' W 123°39'711.1
2017-Sep-21 07:22N 48°13' W 123°50'412.0
2017-Sep-21 07:00N 48°14' W 123°56'612.7
2017-Sep-21 06:30N 48°17' W 124°05'612.1
2017-Sep-21 06:00N 48°19' W 124°13'511.0
2017-Sep-21 05:30N 48°21' W 124°21'510.6
2017-Sep-21 05:00N 48°24' W 124°28'510.4
2017-Sep-21 04:30N 48°26' W 124°35'510.5
2017-Sep-21 04:00N 48°28' W 124°42'510.4
2017-Sep-21 03:30N 48°29' W 124°50'510.7
2017-Sep-21 03:00N 48°28' W 124°58'611.3
2017-Sep-21 02:30N 48°24' W 125°04'612.2
2017-Sep-21 02:00N 48°18' W 125°08'612.0
2017-Sep-21 01:29N 48°14' W 125°13'7 5.7
2017-Sep-21 00:13N 48°09' W 125°22'1 5.9
2017-Sep-21 00:00N 48°10' W 125°21'4 8.0
2017-Sep-20 23:28N 48°09' W 125°27'4 8.0
2017-Sep-20 22:58N 48°09' W 125°21'2 2.8
2017-Sep-20 22:11N 48°08' W 125°24'2 9.1
2017-Sep-20 21:56N 48°09' W 125°20'3 7.3
2017-Sep-20 21:29N 48°08' W 125°25'4 4.6
2017-Sep-20 20:43N 48°09' W 125°20'2 7.7
2017-Sep-20 20:24N 48°08' W 125°23'2 4.1
2017-Sep-20 19:57N 48°08' W 125°26'4 9.1
2017-Sep-20 19:28N 48°08' W 125°19'5 9.4
2017-Sep-20 18:55N 48°07' W 125°27'5 7.9
2017-Sep-20 18:20N 48°08' W 125°20'1 0.9
2017-Sep-20 17:10N 48°07' W 125°21'1 8.9
2017-Sep-20 17:00N 48°08' W 125°19'5 9.2
2017-Sep-20 16:24N 48°07' W 125°27'3 6.9
2017-Sep-20 16:00N 48°06' W 125°23'0 0.6
2017-Sep-20 15:26N 48°06' W 125°23'2 0.6
2017-Sep-20 11:53N 48°05' W 125°25'4 8.7
2017-Sep-20 11:26N 48°05' W 125°19'11 4.5
2017-Sep-20 09:04N 48°14' W 125°28'311.7
2017-Sep-20 08:49N 48°16' W 125°25'411.7
2017-Sep-20 08:27N 48°18' W 125°19'511.8
2017-Sep-20 08:00N 48°21' W 125°13'612.1
2017-Sep-20 07:30N 48°25' W 125°07'611.7
2017-Sep-20 07:00N 48°30' W 125°02'611.2
2017-Sep-20 06:30N 48°31' W 124°54'612.5
2017-Sep-20 06:00N 48°31' W 124°44'713.2
2017-Sep-20 05:30N 48°28' W 124°35'713.3
2017-Sep-20 05:00N 48°26' W 124°26'713.7
2017-Sep-20 04:31N 48°23' W 124°16'713.9
2017-Sep-20 04:00N 48°20' W 124°07'714.6
2017-Sep-20 03:31N 48°18' W 123°56'714.1
2017-Sep-20 03:00N 48°17' W 123°46'713.8
2017-Sep-20 02:30N 48°16' W 123°36'612.6
2017-Sep-20 02:00N 48°13' W 123°27'510.8
2017-Sep-20 01:30N 48°08' W 123°24'2 3.7
2017-Sep-20 01:00N 48°08' W 123°27'0 0.0
2017-Sep-20 00:27N 48°08' W 123°27'0 0.0
2017-Sep-20 00:00N 48°08' W 123°27'0 0.0
2017-Sep-19 23:27N 48°08' W 123°27'0 0.0
2017-Sep-19 23:00N 48°08' W 123°27'0 0.0
2017-Sep-19 22:12N 48°08' W 123°27'0 0.0
2017-Sep-19 21:57N 48°08' W 123°27'0 0.0
2017-Sep-19 21:27N 48°08' W 123°27'0 0.0
2017-Sep-19 20:54N 48°08' W 123°27'0 0.0
2017-Sep-19 20:24N 48°08' W 123°27'0 0.1
2017-Sep-19 19:57N 48°08' W 123°27'0 0.1
2017-Sep-19 19:21N 48°08' W 123°27'0 0.0
2017-Sep-19 18:45N 48°08' W 123°27'0 0.0
2017-Sep-19 18:30N 48°08' W 123°27'0 0.0
2017-Sep-19 18:00N 48°08' W 123°27'0 0.0
2017-Sep-19 17:24N 48°08' W 123°27'0 0.0
2017-Sep-19 17:00N 48°08' W 123°27'0 0.0
2017-Sep-19 16:24N 48°08' W 123°27'0 0.0
2017-Sep-19 16:00N 48°08' W 123°27'0 0.0
2017-Sep-19 15:27N 48°08' W 123°27'3 5.5
2017-Sep-19 14:58N 48°06' W 123°24'323.0 240 / 31005.6 10.3 9.5
2017-Sep-19 14:51N 48°08' W 123°27'0 0.0
2017-Sep-19 14:27N 48°08' W 123°27'0 0.0
2017-Sep-19 13:59N 48°08' W 123°27'3163.7
2017-Sep-19 13:59N 48°06' W 123°24'2 4.6 240 / 51005.1 10.1 9.3
2017-Sep-19 13:30N 48°08' W 123°24'3 5.4
2017-Sep-19 13:00N 48°11' W 123°26'5146.8
2017-Sep-19 12:59N 48°06' W 123°24'817.5 300 / 51004.5 10.310.0
2017-Sep-19 12:30N 48°13' W 123°31'4 7.0
2017-Sep-19 12:00N 48°13' W 123°36'4262.5
2017-Sep-19 12:00N 48°12' W 123°30'4240.0 050 / 51003.8 5.4 10.8 -8.3
2017-Sep-19 11:59N 48°12' W 123°36'3 7.2 050 / 51003.9 10.8 9.8
2017-Sep-19 11:30N 48°13' W 123°41'3 7.2
2017-Sep-19 11:00N 48°13' W 123°46'394.0
2017-Sep-19 10:59N 48°12' W 123°42'613.0 120 / 31003.5 10.0 9.6
2017-Sep-19 10:30N 48°13' W 123°51'3 6.9
2017-Sep-19 10:00N 48°14' W 123°56'266.3
2017-Sep-19 09:59N 48°12' W 123°54'612.1 100 / 51003.3 10.2 9.7
2017-Sep-19 09:30N 48°15' W 124°01'3 6.0
2017-Sep-19 09:00N 48°12' W 124°00'6963.7 140 / 21003.1 10.4 -8.3
2017-Sep-19 08:59N 48°17' W 124°06'5438.9
2017-Sep-19 08:59N 48°12' W 124°06'715.2 140 / 31003.1 10.4 9.6
2017-Sep-19 08:30N 48°18' W 124°11'4 7.6
2017-Sep-19 08:00N 48°20' W 124°17'4108.0
2017-Sep-19 07:59N 48°18' W 124°12'715.5 120 / 41003.0 10.5 9.6
2017-Sep-19 07:30N 48°22' W 124°22'4 7.4
2017-Sep-19 07:00N 48°23' W 124°27'5164.5
2017-Sep-19 06:59N 48°18' W 124°24'918.4 090 / 71003.0 10.410.0
2017-Sep-19 06:30N 48°25' W 124°32'4 8.0
2017-Sep-19 06:00N 48°27' W 124°37'387.6
2017-Sep-19 05:59N 48°24' W 124°36'817.0 060 / 121003.1 10.7 9.5
2017-Sep-19 05:30N 48°29' W 124°46'612.9
2017-Sep-19 05:00N 48°28' W 124°56'5450.5
2017-Sep-19 05:00N 48°24' W 124°54'612.0 090 / 161002.8 10.710.0
2017-Sep-19 04:30N 48°25' W 125°03'713.3
2017-Sep-19 04:00N 48°19' W 125°07'1112.7
2017-Sep-19 04:00N 48°18' W 125°06'712.8 140 / 191003.2 11.210.3
2017-Sep-19 03:27N 48°12' W 125°11'612.5
2017-Sep-19 03:00N 48°07' W 125°08'1131.2
2017-Sep-19 03:00N 48°06' W 125°06'611.2 130 / 151003.1 11.510.3
2017-Sep-19 02:27N 48°01' W 125°02'714.6
2017-Sep-19 02:00N 47°54' W 125°00'1818.4 150 / 111003.5 11.610.3
2017-Sep-19 01:00N 47°36' W 124°54'1312.7 140 / 141003.5 13.712.0
2017-Sep-19 00:00N 47°24' W 124°48'1211.4 200 / 131002.8 14.9 -13.9
2017-Sep-18 22:57N 47°12' W 124°48'1212.0 180 / 191005.1 13.811.0
2017-Sep-18 21:57N 47°00' W 124°48'1313.3 170 / 201005.7 13.510.1
2017-Sep-18 21:00N 46°48' W 124°42'7218.2 170 / 131006.7 5.4 13.5 -12.2
2017-Sep-18 20:58N 46°42' W 124°48'7 7.3 170 / 141006.8 13.210.3
2017-Sep-18 19:58N 46°36' W 124°42'8 8.2 200 / 231006.6 14.512.0
2017-Sep-18 18:58N 46°36' W 124°30'1010.6 180 / 191007.3 14.810.4
2017-Sep-18 18:00N 46°30' W 124°18'4123.9 170 / 131007.910.8 13.7 -12.2
2017-Sep-18 17:58N 46°30' W 124°24'4 4.1 170 / 151007.9 13.510.0
2017-Sep-18 16:58N 46°30' W 124°30'0 0.0 190 / 161007.4 13.7 9.5
2017-Sep-18 15:58N 46°30' W 124°30'0 0.0 190 / 151007.6 13.611.7
2017-Sep-18 14:58N 46°30' W 124°30'0 0.0 250 / 51007.9 13.910.1
2017-Sep-18 13:58N 46°30' W 124°30'0 0.0 240 / 111007.9 13.411.1
2017-Sep-18 12:58N 46°30' W 124°30'7 7.5 270 / 51008.0 12.810.4
2017-Sep-18 12:00N 46°36' W 124°36'4123.7 290 / 91007.9 13.2 -12.2
2017-Sep-18 11:58N 46°36' W 124°42'7 7.4 290 / 71007.9 13.2 8.8
2017-Sep-18 10:59N 46°42' W 124°48'1010.2 260 / 311007.4 13.111.2
2017-Sep-18 09:59N 46°36' W 124°36'1010.4 260 / 161008.1 14.810.6
2017-Sep-18 09:00N 46°30' W 124°24'4247.8 230 / 131008.5 14.3 -11.1
2017-Sep-18 08:59N 46°30' W 124°30'7 7.3 230 / 141008.5 14.510.4
2017-Sep-18 07:59N 46°24' W 124°24'0 0.0 220 / 81009.1 13.511.6
2017-Sep-18 06:59N 46°24' W 124°24'4 4.1 290 / 51009.2 13.511.0
2017-Sep-18 05:59N 46°24' W 124°30'0 0.0 260 / 61009.3 14.812.8
2017-Sep-18 04:59N 46°24' W 124°30'0 0.0 210 / 61009.3 14.813.8
2017-Sep-18 03:59N 46°24' W 124°30'0 0.0 190 / 101009.4 14.514.2
2017-Sep-18 03:00N 46°24' W 124°30'0 0.0 170 / 131008.9 14.312.8
2017-Sep-18 02:00N 46°24' W 124°30'0 0.0 140 / 71009.1 13.812.2
2017-Sep-18 01:00N 46°24' W 124°30'4 4.1 180 / 51009.4 14.212.4
2017-Sep-18 00:00N 46°24' W 124°24'56 2.6 010 / 51009.210.8 14.1 -12.2
2017-Sep-17 02:00N 47°18' W 124°48'4 3.6 360 / 51013.8 16.2 -13.9
2017-Sep-17 00:53N 47°18' W 124°54'7 3.6 350 / 61013.8 16.312.7
2017-Sep-16 22:53N 47°24' W 125°00'0 0.0 320 / 71014.4 17.813.4
2017-Sep-16 21:53N 47°24' W 125°00'4 4.1 020 / 41014.9 15.114.1
2017-Sep-16 20:53N 47°24' W 124°54'7 7.4 330 / 51015.0 13.512.9
2017-Sep-16 19:54N 47°30' W 125°00'7 7.2 020 / 81015.5 14.813.6
2017-Sep-16 18:54N 47°36' W 125°06'6 6.0 030 / 91015.7 14.513.8
2017-Sep-16 17:54N 47°42' W 125°06'5 7.5 050 / 61015.9 13.413.5
2017-Sep-16 17:17N 47°45' W 125°11'512.0
2017-Sep-16 16:54N 47°42' W 125°06'0 0.0 300 / 31016.2 13.813.9
2017-Sep-16 15:54N 47°42' W 125°06'320.9 360 / 11015.9 13.413.5
2017-Sep-16 15:46N 47°44' W 125°08'0 0.8
2017-Sep-16 15:30N 47°44' W 125°09'2 3.9
2017-Sep-16 14:54N 47°42' W 125°06'7 8.9 100 / 41016.0 13.013.1
2017-Sep-16 14:05N 47°48' W 125°11'737.4
2017-Sep-16 13:54N 47°42' W 125°06'597.4 140 / 31015.9 12.612.7
2017-Sep-16 13:50N 47°47' W 125°10'5 5.4
2017-Sep-16 12:54N 47°42' W 125°06'4 6.1 100 / 41015.6 13.313.4
2017-Sep-16 12:12N 47°46' W 125°08'0 1.0
2017-Sep-16 11:58N 47°46' W 125°08'460.4
2017-Sep-16 11:54N 47°42' W 125°06'1010.2 100 / 21015.6 12.913.0
2017-Sep-16 10:56N 47°51' W 125°12'370.9
2017-Sep-16 10:54N 47°48' W 125°12'3 3.7 120 / 31015.9 13.013.2
2017-Sep-16 10:12N 47°48' W 125°08'620.0
2017-Sep-16 09:54N 47°42' W 125°06'354.2 300 / 31016.2 12.712.9
2017-Sep-16 09:50N 47°45' W 125°07'3 7.4
2017-Sep-16 09:27N 47°43' W 125°06'711.9
2017-Sep-16 08:54N 47°36' W 125°06'429.8 030 / 31016.1 13.613.6
2017-Sep-16 08:45N 47°40' W 125°06'0 0.8
2017-Sep-16 08:22N 47°40' W 125°06'4 9.7
2017-Sep-16 07:55N 47°36' W 125°06'5122.8 010 / 61016.1 14.914.8
2017-Sep-16 07:52N 47°41' W 125°06'1 2.2
2017-Sep-16 07:30N 47°40' W 125°06'4 9.1
2017-Sep-16 07:00N 47°36' W 125°03'664.5
2017-Sep-16 06:55N 47°30' W 125°00'7 7.9 320 / 91016.0 15.514.9
2017-Sep-16 06:00N 47°36' W 124°54'448.5 340 / 51016.3 2.2 14.9
2017-Sep-16 05:55N 47°36' W 125°00'616.0 350 / 61016.3 14.915.0
2017-Sep-16 05:34N 47°40' W 125°05'110.9
2017-Sep-16 05:30N 47°41' W 125°06'1 1.1
2017-Sep-16 05:00N 47°41' W 125°05'658.5
2017-Sep-16 04:55N 47°36' W 125°00'2 5.5 310 / 91016.2 14.714.6
2017-Sep-16 04:30N 47°36' W 125°03'1 1.3
2017-Sep-16 04:01N 47°36' W 125°03'218.0
2017-Sep-16 03:55N 47°36' W 125°00'511.8 350 / 41016.4 14.114.2
2017-Sep-16 03:29N 47°40' W 125°04'4 7.2
2017-Sep-16 03:00N 47°42' W 125°00'570.1 090 / 21016.5 13.0 -13.3
2017-Sep-16 02:55N 47°45' W 125°06'3583.2
2017-Sep-16 02:55N 47°42' W 125°06'1114.4 070 / 31016.5 12.813.0
2017-Sep-16 02:09N 47°52' W 125°12'1 5.9
2017-Sep-16 02:01N 47°52' W 125°11'655.9
2017-Sep-16 01:55N 47°48' W 125°06'1 2.6 280 / 41016.7 12.812.9
2017-Sep-16 01:30N 47°49' W 125°06'1 2.2
2017-Sep-16 01:00N 47°48' W 125°05'439.0
2017-Sep-16 00:55N 47°48' W 125°00'4 5.9 300 / 61017.2 15.114.4
2017-Sep-16 00:19N 47°48' W 125°05'0 1.1
2017-Sep-16 00:01N 47°48' W 125°06'6 6.3
2017-Sep-15 23:04N 47°52' W 125°12'1 9.4
2017-Sep-15 22:59N 47°53' W 125°12'5103.8
2017-Sep-15 22:56N 47°48' W 125°12'510.9 230 / 61017.7 14.914.1
2017-Sep-15 22:30N 47°52' W 125°11'5 9.4
2017-Sep-15 21:56N 47°48' W 125°06'036.7 250 / 51017.8 15.114.9
2017-Sep-15 21:55N 47°48' W 125°06'4 8.6
2017-Sep-15 21:28N 47°45' W 125°05'4 8.2
2017-Sep-15 20:56N 47°42' W 125°00'0 0.0 210 / 31018.3 16.015.4
2017-Sep-15 19:56N 47°42' W 125°00'0 0.0 160 / 51018.4 15.314.0
2017-Sep-15 18:56N 47°42' W 125°00'1212.0 160 / 41018.3 14.813.8
2017-Sep-15 17:56N 47°30' W 125°00'6 6.0 140 / 61018.3 13.713.8
2017-Sep-15 16:56N 47°36' W 125°00'1116.0 100 / 41018.1 12.112.2
2017-Sep-15 16:14N 47°46' W 125°06'0 0.8
2017-Sep-15 15:56N 47°46' W 125°06'6394.3
2017-Sep-15 15:56N 47°42' W 125°00'816.7 140 / 11018.0 12.012.0
2017-Sep-15 15:27N 47°49' W 125°06'2 3.4
2017-Sep-15 15:00N 47°48' W 125°05'93017.0
2017-Sep-15 15:00N 47°42' W 124°54'460.6 250 / 21017.7 11.1 -11.6
2017-Sep-15 14:56N 47°42' W 125°00'3 6.9 240 / 31017.7 11.011.1
2017-Sep-15 14:30N 47°43' W 125°04'813.7
2017-Sep-15 13:57N 47°36' W 125°00'1 3.1 310 / 11017.2 11.811.8
2017-Sep-15 13:38N 47°36' W 125°01'1 8.2
2017-Sep-15 13:29N 47°35' W 125°01'3 4.9
2017-Sep-15 12:58N 47°33' W 124°59'4170.0
2017-Sep-15 12:57N 47°30' W 124°54'3 6.8 350 / 21017.2 13.013.1
2017-Sep-15 12:30N 47°32' W 124°57'1019.9
2017-Sep-15 12:00N 47°30' W 124°42'62928.4 230 / 21017.0 11.6 -10.5
2017-Sep-15 11:59N 47°33' W 124°49'363.9
2017-Sep-15 11:57N 47°30' W 124°48'7 7.2 220 / 21016.9 11.611.8
2017-Sep-15 10:57N 47°36' W 124°54'3 7.5 020 / 41017.0 13.613.7
2017-Sep-15 10:35N 47°38' W 124°56'110.5
2017-Sep-15 10:30N 47°38' W 124°55'510.5
2017-Sep-15 10:00N 47°34' W 124°49'470.4
2017-Sep-15 09:57N 47°30' W 124°48'610.5 310 / 81016.6 13.914.0
2017-Sep-15 09:20N 47°36' W 124°53'0 1.1
2017-Sep-15 09:00N 47°35' W 124°52'6100.1
2017-Sep-15 08:57N 47°30' W 124°48'1020.3 320 / 81016.8 14.514.4
2017-Sep-15 08:27N 47°38' W 124°56'4 9.8
2017-Sep-15 08:01N 47°42' W 124°58'342.1
2017-Sep-15 07:57N 47°42' W 124°54'613.8 350 / 61016.4 13.813.5
2017-Sep-15 07:29N 47°47' W 124°59'5 9.5
2017-Sep-15 07:00N 47°43' W 124°58'341.5
2017-Sep-15 06:57N 47°42' W 124°54'715.4 330 / 41015.8 13.613.0
2017-Sep-15 06:30N 47°48' W 124°59'4 8.3
2017-Sep-15 06:01N 47°44' W 124°59'7436.6
2017-Sep-15 06:00N 47°42' W 124°48'480.8 310 / 91015.5 13.8 -11.1
2017-Sep-15 05:57N 47°42' W 124°54'4 8.9 310 / 91015.5 13.712.0
2017-Sep-15 05:31N 47°39' W 124°57'510.1
2017-Sep-15 04:59N 47°35' W 124°51'5120.4
2017-Sep-15 04:57N 47°30' W 124°48'0 0.0 320 / 121015.1 14.112.0
2017-Sep-15 03:58N 47°30' W 124°48'652.4 340 / 121015.2 14.112.3
2017-Sep-15 03:51N 47°35' W 124°52'610.0
2017-Sep-15 03:18N 47°39' W 124°58'3 9.7
2017-Sep-15 03:00N 47°42' W 124°59'7489.2
2017-Sep-15 03:00N 47°42' W 124°48'4121.1 360 / 91015.110.8 13.8
2017-Sep-15 02:58N 47°42' W 124°54'612.9 360 / 111015.1 13.712.3
2017-Sep-15 02:30N 47°47' W 124°60'1 1.0
2017-Sep-15 02:00N 47°46' W 124°60'4110.7
2017-Sep-15 01:58N 47°42' W 125°00'1 2.3 340 / 121014.8 14.511.8
2017-Sep-15 01:30N 47°41' W 124°59'3 6.6
2017-Sep-15 01:01N 47°38' W 124°57'360.8
2017-Sep-15 00:58N 47°36' W 124°54'7 3.6 310 / 181014.4 15.611.1
2017-Sep-14 22:58N 47°30' W 124°48'7 7.2 300 / 171013.9 16.111.2
2017-Sep-14 21:58N 47°36' W 124°54'1312.7 320 / 121014.7 15.910.9
2017-Sep-14 20:58N 47°48' W 125°00'6 6.0 330 / 151014.8 14.910.4
2017-Sep-14 19:58N 47°42' W 125°00'0 0.0 320 / 161014.4 14.510.8
2017-Sep-14 18:58N 47°42' W 125°00'1717.7 330 / 181014.2 14.610.8
2017-Sep-14 18:00N 47°30' W 124°42'4121.6 320 / 131013.8 15.1 -11.1
2017-Sep-14 17:58N 47°30' W 124°48'7 7.4 330 / 121013.8 15.110.7
2017-Sep-14 16:59N 47°24' W 124°42'1414.5 030 / 161013.8 14.8 9.2
2017-Sep-14 15:59N 47°36' W 124°54'4 4.1 350 / 161013.8 15.511.0
2017-Sep-14 15:00N 47°36' W 124°48'8485.5 350 / 131014.0 14.3 -11.1
2017-Sep-14 14:59N 47°36' W 125°00'1115.5 360 / 121014.1 14.111.8
2017-Sep-14 14:15N 47°47' W 125°00'1 3.0
2017-Sep-14 13:59N 47°48' W 125°00'3 9.6 340 / 131013.9 13.912.4
2017-Sep-14 13:40N 47°50' W 125°03'2 9.8
2017-Sep-14 13:29N 47°48' W 125°02'712.9
2017-Sep-14 12:59N 47°42' W 125°00'0 3.9 340 / 141013.1 13.112.8
2017-Sep-14 12:51N 47°42' W 125°01'1314.8
2017-Sep-14 11:59N 47°30' W 124°54'1010.1 330 / 71012.7 13.412.9
2017-Sep-14 10:59N 47°24' W 124°42'7 7.2 330 / 171012.2 13.012.3
2017-Sep-14 09:59N 47°30' W 124°48'6 6.1 340 / 111012.6 13.312.5
2017-Sep-14 09:00N 47°36' W 124°48'4242.7 340 / 51013.3 13.6 -10.5
2017-Sep-14 08:59N 47°36' W 124°54'7 7.2 340 / 51013.4 13.612.7
2017-Sep-14 07:59N 47°42' W 125°00'1316.5 360 / 21013.4 13.012.9
2017-Sep-14 07:13N 47°54' W 125°04'729.1
2017-Sep-14 06:59N 47°48' W 125°00'51859.8 290 / 71013.2 12.712.7
2017-Sep-14 06:58N 47°53' W 125°01'3 3.5
2017-Sep-14 06:12N 47°55' W 125°04'734.5
2017-Sep-14 06:00N 47°48' W 125°00'5293.2 300 / 51013.4 12.712.7
2017-Sep-14 05:59N 47°53' W 125°02'3 4.0
2017-Sep-14 05:08N 47°55' W 125°05'110.8
2017-Sep-14 05:00N 47°54' W 125°04'3313.4
2017-Sep-14 05:00N 47°54' W 125°00'4 8.7 330 / 81013.4 12.812.8
2017-Sep-14 04:29N 47°50' W 124°58'2 4.2
2017-Sep-14 04:00N 47°48' W 125°00'830.0 360 / 81013.5 12.912.8
2017-Sep-14 03:43N 47°55' W 125°06'210.3
2017-Sep-14 03:29N 47°53' W 125°04'5 9.5
2017-Sep-14 03:00N 47°50' W 124°59'4333.7
2017-Sep-14 03:00N 47°48' W 124°54'1010.0 330 / 91013.3 12.512.3
2017-Sep-14 02:00N 47°54' W 125°06'116.9 340 / 101013.4 13.012.5
2017-Sep-14 01:57N 47°55' W 125°07'4 9.2
2017-Sep-14 01:27N 47°51' W 125°02'11779.9
2017-Sep-14 00:00N 49°48' W 124°48'115134.0 020 / 91017.0 17.1 -8.9
2017-Sep-13 23:08N 47°53' W 125°06'12 1.6
2017-Sep-13 15:46N 48°05' W 125°10'2 6.8
2017-Sep-13 15:24N 48°06' W 125°07'8 6.5
2017-Sep-13 14:07N 48°14' W 125°10'1 6.3
2017-Sep-13 14:00N 48°15' W 125°09'2 3.5
2017-Sep-13 13:30N 48°16' W 125°08'7 7.7
2017-Sep-13 12:33N 48°24' W 125°08'112.0
2017-Sep-13 12:28N 48°24' W 125°07'511.6
2017-Sep-13 12:00N 48°29' W 125°03'5 9.4
2017-Sep-13 11:30N 48°31' W 124°57'510.5
2017-Sep-13 11:00N 48°31' W 124°49'611.6
2017-Sep-13 10:30N 48°30' W 124°41'612.6
2017-Sep-13 10:01N 48°27' W 124°32'713.2
2017-Sep-13 09:30N 48°25' W 124°23'713.8
2017-Sep-13 09:01N 48°22' W 124°13'714.2
2017-Sep-13 08:31N 48°19' W 124°03'714.1
2017-Sep-13 08:00N 48°17' W 123°53'713.9
2017-Sep-13 07:30N 48°16' W 123°43'714.1
2017-Sep-13 07:00N 48°15' W 123°32'713.1
2017-Sep-13 06:30N 48°14' W 123°23'713.3
2017-Sep-13 06:00N 48°13' W 123°13'712.8
2017-Sep-13 05:29N 48°13' W 123°03'712.7
2017-Sep-13 04:59N 48°12' W 122°53'511.0
2017-Sep-13 04:30N 48°11' W 122°45'610.7
2017-Sep-13 03:56N 48°06' W 122°39'511.6
2017-Sep-13 03:29N 48°01' W 122°37'511.0
2017-Sep-13 03:00N 47°57' W 122°32'611.4
2017-Sep-13 02:30N 47°53' W 122°26'510.6
2017-Sep-13 02:00N 47°57' W 122°20'3 5.8
2017-Sep-13 01:30N 47°59' W 122°17'2 2.4
2017-Sep-13 00:52N 47°59' W 122°15'0 0.0
2017-Sep-13 00:25N 47°59' W 122°15'0 0.1
2017-Sep-12 23:58N 47°59' W 122°15'0 0.1
2017-Sep-12 23:28N 47°59' W 122°15'0 0.0
2017-Sep-12 22:07N 47°59' W 122°15'0 0.0
2017-Sep-12 21:40N 47°59' W 122°15'0 0.0
2017-Sep-12 21:07N 47°59' W 122°15'0 0.0
2017-Sep-12 20:40N 47°59' W 122°15'0 0.0
2017-Sep-12 20:28N 47°59' W 122°15'0 0.0
2017-Sep-12 19:25N 47°59' W 122°15'0 0.0
2017-Sep-12 18:55N 47°59' W 122°15'0 0.0
2017-Sep-12 18:25N 47°59' W 122°15'0 0.0
2017-Sep-12 17:07N 47°59' W 122°15'0 0.0
2017-Sep-12 16:52N 47°59' W 122°15'0 0.0
2017-Sep-12 16:22N 47°59' W 122°15'0 0.0
2017-Sep-12 15:37N 47°59' W 122°15'0 0.0
2017-Sep-12 15:30N 47°59' W 122°15'2 4.1
2017-Sep-12 15:00N 47°58' W 122°17'5 9.2
2017-Sep-12 14:30N 47°55' W 122°21'3 6.4
2017-Sep-12 14:00N 47°52' W 122°25'4 7.5
2017-Sep-12 13:30N 47°55' W 122°29'510.5
2017-Sep-12 13:00N 47°58' W 122°36'610.3
2017-Sep-12 12:26N 48°03' W 122°39'5 9.8
2017-Sep-12 11:58N 48°08' W 122°42'4 9.6
2017-Sep-12 11:30N 48°10' W 122°48'4 8.6
2017-Sep-12 11:00N 48°14' W 122°49'713.4
2017-Sep-12 10:31N 48°21' W 122°46'714.8
2017-Sep-12 10:00N 48°28' W 122°45'815.9
2017-Sep-12 09:30N 48°36' W 122°45'713.5
2017-Sep-12 09:01N 48°43' W 122°45'712.7
2017-Sep-12 08:30N 48°47' W 122°53'713.4
2017-Sep-12 08:00N 48°50' W 123°02'713.2
2017-Sep-12 07:30N 48°54' W 123°09'612.9
2017-Sep-12 07:00N 48°59' W 123°17'713.1
2017-Sep-12 06:30N 49°03' W 123°24'612.6
2017-Sep-12 06:00N 49°08' W 123°31'510.3
2017-Sep-12 05:29N 49°11' W 123°37'612.6
2017-Sep-12 05:00N 49°14' W 123°45'712.6
2017-Sep-12 04:27N 49°17' W 123°55'612.1
2017-Sep-12 03:59N 49°20' W 124°02'712.2
2017-Sep-12 03:24N 49°23' W 124°12'511.6
2017-Sep-12 02:59N 49°25' W 124°19'611.8
2017-Sep-12 02:28N 49°28' W 124°27'712.2
2017-Sep-12 01:54N 49°33' W 124°34'512.2
2017-Sep-12 01:28N 49°37' W 124°39'612.1
2017-Sep-12 01:00N 49°42' W 124°45'712.5
2017-Sep-12 00:28N 49°46' W 124°52'612.5
2017-Sep-12 00:00N 49°51' W 124°58'612.2
2017-Sep-11 23:30N 49°55' W 125°05'612.3
2017-Sep-11 23:00N 49°59' W 125°12'611.2
2017-Sep-11 22:30N 50°04' W 125°15'510.2
2017-Sep-11 22:00N 50°08' W 125°21'4 7.3
2017-Sep-11 21:30N 50°11' W 125°22'4 8.9
2017-Sep-11 21:00N 50°16' W 125°24'5 9.2
2017-Sep-11 20:30N 50°20' W 125°26'7 7.4
2017-Sep-11 19:34N 50°22' W 125°36'1 8.9
2017-Sep-11 19:29N 50°22' W 125°37'  

Dump ship's entire track history